Time,TemperatureF,DewpointF,PressureIn,WindDirection,WindDirectionDegrees,WindSpeedMPH,WindSpeedGustMPH,Humidity,HourlyPrecipIn,Conditions,Clouds,dailyrainin,SolarRadiationWatts/m^2,SoftwareType,DateUTC
2013-04-29 00:21:00,41.0,39.0,-100.00,NE,36,0.0,1.0,92,0.00,,,0.09,0.000000,,2013-04-29 07:21:00,
2013-04-29 00:32:00,41.0,39.0,-100.00,NE,36,0.0,1.0,92,0.00,,,0.09,0.000000,,2013-04-29 07:32:00,
2013-04-29 00:41:00,41.0,39.0,-100.00,NE,36,0.0,1.0,92,0.00,,,0.09,0.000000,,2013-04-29 07:41:00,
2013-04-29 01:21:00,41.0,39.0,-100.00,North,354,0.0,2.0,93,0.00,,,0.09,0.000000,,2013-04-29 08:21:00,
2013-04-29 01:31:00,41.0,39.0,-100.00,North,354,0.0,2.0,93,0.00,,,0.09,0.000000,,2013-04-29 08:31:00,
2013-04-29 01:42:00,41.0,39.0,-100.00,North,354,0.0,2.0,93,0.00,,,0.09,0.000000,,2013-04-29 08:42:00,
2013-04-29 01:51:00,41.0,39.0,-100.00,North,354,0.0,2.0,93,0.00,,,0.09,0.000000,,2013-04-29 08:51:00,
2013-04-29 01:52:00,42.0,40.0,-100.00,NW,314,0.0,4.0,92,0.01,,,0.09,0.000000,,2013-04-29 08:52:00,
2013-04-29 02:12:00,42.0,40.0,-100.00,NW,314,0.0,4.0,92,0.01,,,0.09,0.000000,,2013-04-29 09:12:00,
2013-04-29 02:21:00,42.0,40.0,-100.00,NW,314,0.0,4.0,92,0.01,,,0.09,0.000000,,2013-04-29 09:21:00,
2013-04-29 02:32:00,42.0,40.0,-100.00,NW,314,0.0,4.0,92,0.01,,,0.09,0.000000,,2013-04-29 09:32:00,
2013-04-29 02:42:00,42.0,40.0,-100.00,NW,314,0.0,4.0,92,0.01,,,0.09,0.000000,,2013-04-29 09:42:00,
2013-04-29 02:52:00,42.0,41.0,-100.00,NE,49,0.0,2.0,96,0.03,,,0.12,0.000000,,2013-04-29 09:52:00,
2013-04-29 03:12:00,42.0,41.0,-100.00,NE,49,0.0,2.0,96,0.03,,,0.12,0.000000,,2013-04-29 10:12:00,
2013-04-29 03:23:00,42.0,41.0,-100.00,NE,49,0.0,2.0,96,0.03,,,0.12,0.000000,,2013-04-29 10:23:00,
2013-04-29 03:32:00,42.0,41.0,-100.00,NE,49,0.0,2.0,96,0.03,,,0.12,0.000000,,2013-04-29 10:32:00,
2013-04-29 03:42:00,42.0,41.0,-100.00,NE,49,0.0,2.0,96,0.03,,,0.12,0.000000,,2013-04-29 10:42:00,
2013-04-29 03:52:00,42.0,41.0,-100.00,SSE,165,0.0,2.0,97,0.05,,,0.16,0.000000,,2013-04-29 10:52:00,
2013-04-29 04:12:00,42.0,41.0,-100.00,SSE,165,0.0,2.0,97,0.05,,,0.16,0.000000,,2013-04-29 11:12:00,
2013-04-29 04:21:00,42.0,41.0,-100.00,SSE,165,0.0,2.0,97,0.05,,,0.16,0.000000,,2013-04-29 11:21:00,
2013-04-29 04:32:00,42.0,41.0,-100.00,SSE,165,0.0,2.0,97,0.05,,,0.16,0.000000,,2013-04-29 11:32:00,
2013-04-29 04:41:00,42.0,41.0,-100.00,SSE,165,0.0,2.0,97,0.05,,,0.16,0.000000,,2013-04-29 11:41:00,
2013-04-29 05:12:00,41.0,40.0,-100.00,ESE,109,0.0,1.0,97,0.08,,,0.24,0.000000,,2013-04-29 12:12:00,
2013-04-29 05:22:00,41.0,40.0,-100.00,ESE,109,0.0,1.0,97,0.08,,,0.24,0.000000,,2013-04-29 12:22:00,
2013-04-29 05:31:00,41.0,40.0,-100.00,ESE,109,0.0,1.0,97,0.08,,,0.24,0.000000,,2013-04-29 12:31:00,
2013-04-29 05:41:00,41.0,40.0,-100.00,ESE,109,0.0,1.0,97,0.08,,,0.24,0.000000,,2013-04-29 12:41:00,
2013-04-29 05:51:00,41.0,40.0,-100.00,ESE,109,0.0,1.0,97,0.08,,,0.24,0.000000,,2013-04-29 12:51:00,
2013-04-29 05:52:00,41.0,40.0,-100.00,ESE,123,0.0,0.0,98,0.03,,,0.27,0.000000,,2013-04-29 12:52:00,
2013-04-29 06:21:00,41.0,40.0,-100.00,ESE,123,0.0,0.0,98,0.03,,,0.27,0.000000,,2013-04-29 13:21:00,
2013-04-29 06:31:00,41.0,40.0,-100.00,ESE,123,0.0,0.0,98,0.03,,,0.27,0.000000,,2013-04-29 13:31:00,
2013-04-29 06:42:00,41.0,40.0,-100.00,ESE,123,0.0,0.0,98,0.03,,,0.27,0.000000,,2013-04-29 13:42:00,
2013-04-29 07:21:00,41.0,40.0,-100.00,NNE,19,0.0,2.0,98,0.00,,,0.26,7.000000,,2013-04-29 14:21:00,
2013-04-29 07:32:00,41.0,40.0,-100.00,NNE,19,0.0,2.0,98,0.00,,,0.26,7.000000,,2013-04-29 14:32:00,
2013-04-29 07:42:00,41.0,40.0,-100.00,NNE,19,0.0,2.0,98,0.00,,,0.26,7.000000,,2013-04-29 14:42:00,
2013-04-29 07:51:00,41.0,40.0,-100.00,NNE,19,0.0,2.0,98,0.00,,,0.26,7.000000,,2013-04-29 14:51:00,
2013-04-29 07:52:00,43.0,42.0,-100.00,SSW,211,0.0,4.0,97,0.00,,,0.20,34.000000,,2013-04-29 14:52:00,
2013-04-29 08:12:00,43.0,42.0,-100.00,SSW,211,0.0,4.0,97,0.00,,,0.20,34.000000,,2013-04-29 15:12:00,
2013-04-29 08:21:00,43.0,42.0,-100.00,SSW,211,0.0,4.0,97,0.00,,,0.20,34.000000,,2013-04-29 15:21:00,
2013-04-29 08:33:00,43.0,42.0,-100.00,SSW,211,0.0,4.0,97,0.00,,,0.20,34.000000,,2013-04-29 15:33:00,
2013-04-29 08:42:00,43.0,42.0,-100.00,SSW,211,0.0,4.0,97,0.00,,,0.20,34.000000,,2013-04-29 15:42:00,
2013-04-29 08:52:00,46.0,43.0,-100.00,SSE,150,1.0,5.0,90,0.00,,,0.20,145.000000,,2013-04-29 15:52:00,
2013-04-29 09:23:00,46.0,43.0,-100.00,SSE,150,1.0,5.0,90,0.00,,,0.20,145.000000,,2013-04-29 16:23:00,
2013-04-29 09:32:00,46.0,43.0,-100.00,SSE,150,1.0,5.0,90,0.00,,,0.20,145.000000,,2013-04-29 16:32:00,
2013-04-29 09:42:00,46.0,43.0,-100.00,SSE,150,1.0,5.0,90,0.00,,,0.20,145.000000,,2013-04-29 16:42:00,
2013-04-29 09:52:00,47.0,39.0,-100.00,SSE,155,5.0,19.0,74,0.00,,,0.20,265.000000,,2013-04-29 16:52:00,
2013-04-29 10:12:00,47.0,39.0,-100.00,SSE,155,5.0,19.0,74,0.00,,,0.20,265.000000,,2013-04-29 17:12:00,
2013-04-29 10:22:00,47.0,39.0,-100.00,SSE,155,5.0,19.0,74,0.00,,,0.20,265.000000,,2013-04-29 17:22:00,
2013-04-29 10:32:00,47.0,39.0,-100.00,SSE,155,5.0,19.0,74,0.00,,,0.20,265.000000,,2013-04-29 17:32:00,
2013-04-29 10:42:00,47.0,39.0,-100.00,SSE,155,5.0,19.0,74,0.00,,,0.20,265.000000,,2013-04-29 17:42:00,
2013-04-29 11:13:00,49.0,34.0,-100.00,SE,142,5.0,16.0,56,0.00,,,0.20,406.000000,,2013-04-29 18:13:00,
2013-04-29 11:22:00,49.0,34.0,-100.00,SE,142,5.0,16.0,56,0.00,,,0.20,406.000000,,2013-04-29 18:22:00,
2013-04-29 11:31:00,49.0,34.0,-100.00,SE,142,5.0,16.0,56,0.00,,,0.20,406.000000,,2013-04-29 18:31:00,
2013-04-29 11:41:00,49.0,34.0,-100.00,SE,142,5.0,16.0,56,0.00,,,0.20,406.000000,,2013-04-29 18:41:00,
2013-04-29 11:51:00,49.0,34.0,-100.00,SE,142,5.0,16.0,56,0.00,,,0.20,406.000000,,2013-04-29 18:51:00,
2013-04-29 13:11:00,45.0,31.0,-100.00,ESE,115,2.0,14.0,58,-99.99,,,0.23,415.000000,,2013-04-29 20:11:00,
2013-04-29 13:21:00,45.0,31.0,-100.00,ESE,115,2.0,14.0,58,-99.99,,,0.23,415.000000,,2013-04-29 20:21:00,
2013-04-29 13:32:00,45.0,31.0,-100.00,ESE,115,2.0,14.0,58,-99.99,,,0.23,415.000000,,2013-04-29 20:32:00,
2013-04-29 13:42:00,45.0,31.0,-100.00,ESE,115,2.0,14.0,58,-99.99,,,0.23,415.000000,,2013-04-29 20:42:00,
2013-04-29 13:51:00,45.0,31.0,-100.00,ESE,115,2.0,14.0,58,-99.99,,,0.23,415.000000,,2013-04-29 20:51:00,
2013-04-29 13:52:00,50.0,29.0,-100.00,East,88,4.0,18.0,45,0.01,,,0.24,586.000000,,2013-04-29 20:52:00,
2013-04-29 14:21:00,50.0,29.0,-100.00,East,88,4.0,18.0,45,0.01,,,0.24,586.000000,,2013-04-29 21:21:00,
2013-04-29 14:33:00,50.0,29.0,-100.00,East,88,4.0,18.0,45,0.01,,,0.24,586.000000,,2013-04-29 21:33:00,
2013-04-29 14:42:00,50.0,29.0,-100.00,East,88,4.0,18.0,45,0.01,,,0.24,586.000000,,2013-04-29 21:42:00,
2013-04-29 14:52:00,47.0,23.0,-100.00,NE,40,5.0,26.0,39,0.00,,,0.24,500.000000,,2013-04-29 21:52:00,
2013-04-29 15:23:00,47.0,23.0,-100.00,NE,40,5.0,26.0,39,0.00,,,0.24,500.000000,,2013-04-29 22:23:00,
2013-04-29 15:32:00,47.0,23.0,-100.00,NE,40,5.0,26.0,39,0.00,,,0.24,500.000000,,2013-04-29 22:32:00,
2013-04-29 15:42:00,47.0,23.0,-100.00,NE,40,5.0,26.0,39,0.00,,,0.24,500.000000,,2013-04-29 22:42:00,
2013-04-29 15:52:00,43.0,29.0,-100.00,ENE,67,3.0,14.0,57,0.00,,,0.24,334.000000,,2013-04-29 22:52:00,
2013-04-29 16:11:00,43.0,29.0,-100.00,ENE,67,3.0,14.0,57,0.00,,,0.24,334.000000,,2013-04-29 23:11:00,
2013-04-29 16:22:00,43.0,29.0,-100.00,ENE,67,3.0,14.0,57,0.00,,,0.24,334.000000,,2013-04-29 23:22:00,
2013-04-29 16:32:00,43.0,29.0,-100.00,ENE,67,3.0,14.0,57,0.00,,,0.24,334.000000,,2013-04-29 23:32:00,
2013-04-29 16:42:00,43.0,29.0,-100.00,ENE,67,3.0,14.0,57,0.00,,,0.24,334.000000,,2013-04-29 23:42:00,
2013-04-29 17:21:00,43.0,27.0,-100.00,NE,43,4.0,13.0,52,0.00,,,0.24,128.000000,,2013-04-30 00:21:00,
2013-04-29 17:32:00,43.0,27.0,-100.00,NE,43,4.0,13.0,52,0.00,,,0.24,128.000000,,2013-04-30 00:32:00,
2013-04-29 17:41:00,43.0,27.0,-100.00,NE,43,4.0,13.0,52,0.00,,,0.24,128.000000,,2013-04-30 00:41:00,
2013-04-29 17:51:00,43.0,27.0,-100.00,NE,43,4.0,13.0,52,0.00,,,0.24,128.000000,,2013-04-30 00:51:00,
2013-04-29 18:21:00,41.0,32.0,-100.00,West,268,1.0,10.0,70,0.01,,,0.25,85.000000,,2013-04-30 01:21:00,
2013-04-29 18:32:00,41.0,32.0,-100.00,West,268,1.0,10.0,70,0.01,,,0.25,85.000000,,2013-04-30 01:32:00,
2013-04-29 18:41:00,41.0,32.0,-100.00,West,268,1.0,10.0,70,0.01,,,0.25,85.000000,,2013-04-30 01:41:00,
2013-04-29 18:51:00,41.0,32.0,-100.00,West,268,1.0,10.0,70,0.01,,,0.25,85.000000,,2013-04-30 01:51:00,
2013-04-29 19:21:00,44.0,21.0,-100.00,SSW,201,3.0,10.0,40,0.00,,,0.25,48.000000,,2013-04-30 02:21:00,
2013-04-29 19:31:00,44.0,21.0,-100.00,SSW,201,3.0,10.0,40,0.00,,,0.25,48.000000,,2013-04-30 02:31:00,
2013-04-29 19:41:00,44.0,21.0,-100.00,SSW,201,3.0,10.0,40,0.00,,,0.25,48.000000,,2013-04-30 02:41:00,
2013-04-29 19:51:00,44.0,21.0,-100.00,SSW,201,3.0,10.0,40,0.00,,,0.25,48.000000,,2013-04-30 02:51:00,
2013-04-29 19:52:00,39.0,24.0,-100.00,SE,133,1.0,8.0,55,0.00,,,0.25,16.000000,,2013-04-30 02:52:00,
2013-04-29 20:21:00,39.0,24.0,-100.00,SE,133,1.0,8.0,55,0.00,,,0.25,16.000000,,2013-04-30 03:21:00,
2013-04-29 20:33:00,39.0,24.0,-100.00,SE,133,1.0,8.0,55,0.00,,,0.25,16.000000,,2013-04-30 03:33:00,
2013-04-29 20:42:00,39.0,24.0,-100.00,SE,133,1.0,8.0,55,0.00,,,0.25,16.000000,,2013-04-30 03:42:00,
2013-04-29 22:52:00,31.0,27.0,-100.00,NNE,21,0.0,2.0,86,-99.99,,,0.25,0.000000,,2013-04-30 05:52:00,
2013-04-29 23:21:00,31.0,27.0,-100.00,NNE,21,0.0,2.0,86,-99.99,,,0.25,0.000000,,2013-04-30 06:21:00,
2013-04-29 23:31:00,31.0,27.0,-100.00,NNE,21,0.0,2.0,86,-99.99,,,0.25,0.000000,,2013-04-30 06:31:00,
2013-04-29 23:41:00,31.0,27.0,-100.00,NNE,21,0.0,2.0,86,-99.99,,,0.25,0.000000,,2013-04-30 06:41:00,